createdAt,value
2022-11-06T00:02:24.117Z,93173.38
2022-11-06T00:17:25.630Z,93177.63
2022-11-06T00:32:27.305Z,93157.97
2022-11-06T00:47:28.794Z,93160.91
2022-11-06T01:02:30.437Z,93148.97
2022-11-06T01:17:32.120Z,93140.28
2022-11-06T01:32:34.369Z,93114.84
2022-11-06T01:47:36.336Z,93116.59
2022-11-06T02:02:38.540Z,93114.13
2022-11-06T02:17:57.413Z,93115.13
2022-11-06T02:33:04.897Z,93094.25
2022-11-06T02:48:09.159Z,93087.13
2022-11-06T03:03:15.544Z,93103.16
2022-11-06T03:18:19.879Z,93101.19
2022-11-06T03:33:44.605Z,93134.13
2022-11-06T03:49:07.159Z,93134.53
2022-11-06T04:04:11.501Z,93143.13
2022-11-06T04:19:17.678Z,93149.66
2022-11-06T04:34:33.220Z,93162.59
2022-11-06T04:49:35.816Z,93175.53
2022-11-06T05:04:37.343Z,93192.94
2022-11-06T05:19:38.902Z,93220.72
2022-11-06T05:34:42.317Z,93230.16
2022-11-06T05:49:43.749Z,93242.47
2022-11-06T06:04:45.229Z,93265.25
2022-11-06T06:19:47.189Z,93270.44
2022-11-06T06:34:48.704Z,93282.19
2022-11-06T06:49:50.194Z,93291.34
2022-11-06T07:04:51.735Z,93313.63
2022-11-06T07:19:53.284Z,93334.97
2022-11-06T07:34:54.764Z,93337.47
2022-11-06T07:49:56.212Z,93334.59
2022-11-06T08:04:57.726Z,93343.09
2022-11-06T08:19:59.209Z,93365.66
2022-11-06T08:35:00.759Z,93360.81
2022-11-06T08:50:02.211Z,93391.16
2022-11-06T09:05:03.735Z,93400.34
2022-11-06T09:20:06.039Z,93386.88
2022-11-06T09:35:07.721Z,93398.53
2022-11-06T09:50:15.600Z,93398.91
2022-11-06T10:05:26.003Z,93392.09
2022-11-06T10:20:30.849Z,93393.72
2022-11-06T10:35:37.643Z,93406.59
2022-11-06T10:50:47.387Z,93408.97
2022-11-06T11:05:48.843Z,93414.09
2022-11-06T11:20:51.312Z,93402.38
2022-11-06T11:35:53.477Z,93395.41
2022-11-06T11:50:54.949Z,93395.16
2022-11-06T12:06:05.675Z,93394.00
2022-11-06T12:21:08.656Z,93393.59
2022-11-06T12:36:14.135Z,93392.19
2022-11-06T12:51:24.756Z,93383.75
2022-11-06T13:07:10.612Z,93395.91
2022-11-06T13:22:14.903Z,93403.44
2022-11-06T13:37:20.910Z,93417.38
2022-11-06T13:52:28.492Z,93426.66
2022-11-06T14:07:30.955Z,93426.16
2022-11-06T14:22:33.968Z,93431.38
2022-11-06T14:37:45.351Z,93438.81
2022-11-06T14:52:49.954Z,93448.97
2022-11-06T15:08:08.598Z,93464.09
2022-11-06T15:23:28.254Z,93478.59
2022-11-06T15:38:39.818Z,93492.69
2022-11-06T15:53:41.362Z,93490.06
2022-11-06T16:08:43.460Z,93512.72
2022-11-06T16:23:44.989Z,93530.63
2022-11-06T16:38:46.907Z,93538.84
2022-11-06T16:53:53.960Z,93554.06
2022-11-06T17:09:08.918Z,93560.22
2022-11-06T17:24:35.528Z,93584.66
2022-11-06T17:39:33.049Z,93598.41
2022-11-06T17:54:37.183Z,93607.72
2022-11-06T18:09:38.643Z,93617.50
2022-11-06T18:24:40.953Z,93633.16
2022-11-06T18:39:42.451Z,93633.69
2022-11-06T18:54:43.903Z,93621.34
2022-11-06T19:09:45.371Z,93642.53
2022-11-06T19:24:46.938Z,93656.94
2022-11-06T19:39:48.694Z,93664.66
2022-11-06T19:54:50.183Z,93667.16
2022-11-06T20:10:11.614Z,93695.88
2022-11-06T20:25:13.141Z,93720.25
2022-11-06T20:40:14.734Z,93715.22
2022-11-06T20:55:16.229Z,93733.50
2022-11-06T21:10:17.730Z,93749.66
2022-11-06T21:25:19.276Z,93749.84
2022-11-06T21:40:20.794Z,93765.53
2022-11-06T21:55:40.715Z,93771.44
2022-11-06T22:16:08.768Z,93748.28
2022-11-06T22:31:10.755Z,93753.34
2022-11-06T22:46:14.141Z,93774.53
2022-11-06T23:01:20.234Z,93787.78
2022-11-06T23:16:44.566Z,93792.75
2022-11-06T23:31:46.007Z,93783.63
2022-11-06T23:46:47.454Z,93792.69
